Bei Facebook empfehlenBei Twitter postenGoogle plusPinterest

Das Wetter im Erzgebirge am 07.09.2016

Wetter und Klima am 07.09.2016 Holzhau im Erzgebirge (630m ü.NN)
Letzte gemessene Temperatur und Uhrzeit der Messung23:45:00 Uhr12.80 °C
Temperatur (Maximum / Höchstwert) und Uhrzeit der Messung16:15:00 Uhr23.80 °C
Temperatur (Minimum / Tiefstwert) und Uhrzeit der Messung00:00:008.40 °C
Errechneter Absolutwert der Temperaturschwankungen zwischen Tmin und Tmax des Tages15.40 K
Errechnete Tagesmitteltemperatur15.84271 °C
Gesamt - Niederschlag des Tages (in flüssiger Form)0.00 Liter / m²
Luftdruck (Maximum / Höchstwert) und Zeitpunkt der Messung00:30:00 Uhr1024.00 hPa
Luftdruck (Minimum / Tiefstwert) und Zeitpunkt der Messung23:45:00 Uhr1016.70 hPa
Errechneter Absolutwert der Luftdruckschwankungen des Tages7.30 hPa
Höchste gemessene Windgeschwindigkeit und Uhrzeit der Messung04:15:00 Uhr183.60 km/h
Errechnete Windhäufigkeit in Relation zu den Messwerten des Tages1.04167 %
Niedrigste Windkühle (Windchill) und Zeitpunkt der Messung04:15:00 Uhr2.40 °C
Taupunkt (Maximum / Höchstwert) und Uhrzeit der Messung10:15:00 Uhr17.10 °C
Taupunkt (Minimum / Tiefstwert) und Uhrzeit der Messung00:00:007.00 °C
Anzahl der automatisch eingelesenen Messwerte 96

Detaillierte Wetter- und Klima- Messwerte für den 07.09.2016 in Holzhau im Erzgebirge (630m ü.NN)
ZeitTemperaturLuftdruckRel. LuftfeuchteWindWindrichtungWindchillTaupunktNiederschlag l/m²
23:45:0012.80 °C1016.70 hPa90.00 %11.20 °C 
23:30:0012.90 °C1016.80 hPa89.00 %11.10 °C 
23:15:0012.90 °C1016.90 hPa88.00 %11.00 °C 
23:00:0013.00 °C1017.00 hPa88.00 %11.10 °C 
22:45:0013.40 °C1017.00 hPa87.00 %11.30 °C 
22:30:0013.90 °C1017.10 hPa87.00 %11.80 °C 
22:15:0014.20 °C1017.40 hPa86.00 %11.90 °C 
22:00:0014.50 °C1017.50 hPa86.00 %12.20 °C 
21:45:0014.10 °C1017.60 hPa86.00 %11.80 °C 
21:30:0014.30 °C1017.80 hPa85.00 %11.80 °C 
21:15:0014.40 °C1017.80 hPa84.00 %11.70 °C 
21:00:0014.50 °C1017.80 hPa83.00 %11.60 °C 
20:45:0015.10 °C1017.80 hPa81.00 %11.90 °C 
20:30:0015.60 °C1018.00 hPa80.00 %12.20 °C 
20:15:0016.60 °C1017.90 hPa78.00 %12.80 °C 
20:00:0017.50 °C1017.90 hPa77.00 %13.40 °C 
19:45:0018.10 °C1017.90 hPa75.00 %13.60 °C 
19:30:0018.50 °C1017.70 hPa74.00 %13.80 °C 
19:15:0019.20 °C1017.90 hPa73.00 %14.20 °C 
19:00:0019.90 °C1018.30 hPa71.00 %14.50 °C 
18:45:0020.60 °C1018.50 hPa69.00 %14.70 °C 
18:30:0021.50 °C1018.60 hPa67.00 %15.10 °C 
18:15:0022.30 °C1018.80 hPa65.00 %15.40 °C 
18:00:0022.90 °C1018.90 hPa64.00 %15.70 °C 
17:45:0023.40 °C1019.20 hPa64.00 %16.20 °C 
17:30:0023.40 °C1019.40 hPa65.00 %16.40 °C 
17:15:0023.30 °C1019.60 hPa64.00 %16.10 °C 
17:00:0023.50 °C1019.70 hPa64.00 %16.30 °C 
16:45:0023.60 °C1019.90 hPa64.00 %16.40 °C 
16:30:0023.50 °C1020.00 hPa64.00 %16.30 °C 
16:15:0023.80 °C1020.20 hPa63.00 %16.30 °C 
16:00:0023.60 °C1020.20 hPa64.00 %16.40 °C 
15:45:0023.40 °C1020.20 hPa64.00 %16.20 °C 
15:30:0023.50 °C1020.40 hPa64.00 %16.30 °C 
15:15:0023.50 °C1020.50 hPa64.00 %16.30 °C 
15:00:0023.60 °C1020.30 hPa64.00 %16.40 °C 
14:45:0023.60 °C1020.40 hPa66.00 %16.90 °C 
14:30:0023.20 °C1020.50 hPa67.00 %16.70 °C 
14:15:0022.90 °C1020.50 hPa67.00 %16.40 °C 
14:00:0022.80 °C1020.70 hPa68.00 %16.60 °C 
13:45:0022.50 °C1020.70 hPa68.00 %16.30 °C 
13:30:0022.60 °C1020.90 hPa69.00 %16.60 °C 
13:15:0022.10 °C1020.70 hPa70.00 %16.40 °C 
13:00:0021.80 °C1020.80 hPa71.00 %16.30 °C 
12:45:0021.40 °C1020.80 hPa72.00 %16.10 °C 
12:30:0021.00 °C1021.00 hPa73.00 %16.00 °C 
12:15:0020.70 °C1021.20 hPa73.00 %15.70 °C 
12:00:0020.40 °C1021.20 hPa74.00 %15.60 °C 
11:45:0020.20 °C1021.20 hPa75.00 %15.60 °C 
11:30:0019.90 °C1021.30 hPa76.00 %15.50 °C 
11:15:0019.90 °C1021.30 hPa78.00 %16.00 °C 
11:00:0019.50 °C1021.70 hPa80.00 %16.00 °C 
10:45:0019.40 °C1021.70 hPa83.00 %16.40 °C 
10:30:0019.10 °C1021.60 hPa87.00 %16.90 °C 
10:15:0018.80 °C1021.60 hPa90.00 %17.10 °C 
10:00:0018.20 °C1021.60 hPa93.00 %17.00 °C 
09:45:0017.60 °C1021.60 hPa94.00 %16.60 °C 
09:30:0016.90 °C1021.60 hPa95.00 %16.10 °C 
09:15:0015.90 °C1021.50 hPa95.00 %15.10 °C 
09:00:0014.90 °C1021.50 hPa95.00 %14.10 °C 
08:45:0014.10 °C1021.90 hPa95.00 %13.30 °C 
08:30:0012.90 °C1021.80 hPa95.00 %12.10 °C 
08:15:0012.10 °C1021.80 hPa95.00 %11.30 °C 
08:00:0011.40 °C1021.70 hPa95.00 %10.60 °C 
07:45:0010.50 °C1021.80 hPa95.00 %9.70 °C 
07:30:009.30 °C1022.00 hPa94.00 %8.40 °C 
07:15:009.20 °C1022.00 hPa94.00 %8.30 °C 
07:00:009.10 °C1022.00 hPa94.00 %8.20 °C 
06:45:009.20 °C1022.00 hPa94.00 %8.30 °C 
06:30:009.30 °C1022.10 hPa94.00 %8.40 °C 
06:15:009.40 °C1022.10 hPa94.00 %8.50 °C 
06:00:009.60 °C1022.10 hPa94.00 %8.70 °C 
05:45:009.90 °C1022.20 hPa94.00 %9.00 °C 
05:30:0010.20 °C1022.30 hPa94.00 %9.30 °C 
05:15:0010.20 °C1022.40 hPa94.00 %9.30 °C 
05:00:009.90 °C1022.50 hPa94.00 %9.00 °C 
04:45:009.60 °C1022.80 hPa94.00 %8.70 °C 
04:30:0010.00 °C1022.90 hPa93.00 %8.90 °C 
04:15:0010.10 °C1023.00 hPa94.00 %183.60 km/hOSO2.40 °C9.20 °C 
04:00:0010.20 °C1023.10 hPa93.00 %9.10 °C 
03:45:0010.50 °C1023.20 hPa93.00 %9.40 °C 
03:30:0010.40 °C1023.30 hPa93.00 %9.30 °C 
03:15:0010.40 °C1023.30 hPa93.00 %9.30 °C 
03:00:0010.40 °C1023.20 hPa93.00 %9.30 °C 
02:45:0010.20 °C1023.40 hPa93.00 %9.10 °C 
02:30:0010.10 °C1023.60 hPa93.00 %9.00 °C 
02:15:0010.30 °C1023.70 hPa93.00 %9.20 °C 
02:00:0010.10 °C1023.70 hPa93.00 %9.00 °C 
01:45:009.60 °C1023.80 hPa93.00 %8.50 °C 
01:30:009.40 °C1023.60 hPa93.00 %8.30 °C 
01:15:009.20 °C1023.70 hPa92.00 %8.00 °C 
01:00:009.10 °C1023.90 hPa92.00 %7.90 °C 
00:45:008.90 °C1023.90 hPa92.00 %7.70 °C 
00:30:008.90 °C1024.00 hPa92.00 %7.70 °C 
00:15:008.70 °C1024.00 hPa91.00 %7.30 °C 
00:00:008.40 °C1024.00 hPa91.00 %7.00 °C 

Permanenter Link zu dieser Seite: Wetter im Erzgebirge am 07.09.2016
Performance-Info: Die Erstellung der Seite / Statistik(en) / Tabelle(n) erforderte 5 Datenbankserver-Abfrage(n) und dauerte 97 Millisekunden. (Dieser Messwert ist von der Gesamt-Auslastung des Servers abhängig.)
Erzgebirge - Wetter | Erzgebirge - Wetter (Mobilgeräte) | Komplette Klimadatenbank